createdAt,value
2018-07-13T00:00:19.262Z,30.40
2018-07-13T00:02:49.004Z,37.50
2018-07-13T00:05:18.580Z,35.03
2018-07-13T00:07:47.894Z,41.50
2018-07-13T00:10:17.687Z,41.40
2018-07-13T00:12:46.970Z,30.83
2018-07-13T00:15:16.295Z,33.73
2018-07-13T00:17:45.618Z,29.83
2018-07-13T00:20:15.012Z,21.30
2018-07-13T00:22:44.559Z,34.63
2018-07-13T00:25:14.502Z,29.17
2018-07-13T00:27:43.827Z,32.17
2018-07-13T00:30:13.204Z,26.80
2018-07-13T00:32:42.653Z,27.87
2018-07-13T00:35:12.317Z,45.90
2018-07-13T00:37:41.762Z,27.87
2018-07-13T00:40:11.284Z,40.20
2018-07-13T00:42:40.661Z,39.13
2018-07-13T00:45:10.063Z,32.30
2018-07-13T00:47:39.969Z,41.20
2018-07-13T00:50:09.608Z,40.90
2018-07-13T00:52:38.951Z,34.17
2018-07-13T00:55:08.727Z,35.63
2018-07-13T00:57:38.016Z,37.23
2018-07-13T01:00:07.323Z,30.50
2018-07-13T01:02:36.765Z,35.90
2018-07-13T01:05:06.316Z,36.30
2018-07-13T01:07:35.776Z,35.70
2018-07-13T01:10:05.617Z,35.83
2018-07-13T01:12:35.374Z,39.77
2018-07-13T01:15:04.658Z,27.33
2018-07-13T01:17:34.030Z,32.60
2018-07-13T01:20:03.564Z,35.70
2018-07-13T01:22:32.868Z,34.60
2018-07-13T01:25:02.178Z,50.47
2018-07-13T01:27:31.536Z,32.43
2018-07-13T01:30:00.826Z,31.83
2018-07-13T01:32:30.672Z,34.27
2018-07-13T01:35:00.047Z,32.47
2018-07-13T01:37:29.464Z,24.70
2018-07-13T01:39:59.121Z,34.10
2018-07-13T01:42:28.572Z,32.60
2018-07-13T01:44:57.876Z,27.23
2018-07-13T01:47:27.252Z,34.47
2018-07-13T01:49:56.563Z,25.83
2018-07-13T01:52:25.890Z,34.70
2018-07-13T01:54:55.487Z,33.77
2018-07-13T01:57:24.952Z,32.90
2018-07-13T01:59:54.394Z,31.73
2018-07-13T02:02:23.747Z,34.57
2018-07-13T02:04:53.095Z,45.30
2018-07-13T02:07:22.506Z,31.67
2018-07-13T02:09:54.827Z,29.40
2018-07-13T02:12:24.277Z,33.57
2018-07-13T02:14:53.667Z,25.57
2018-07-13T02:17:23.844Z,37.10
2018-07-13T02:19:53.317Z,33.60
2018-07-13T02:22:22.654Z,33.90
2018-07-13T02:24:52.020Z,25.50
2018-07-13T02:27:21.323Z,29.53
2018-07-13T02:29:50.426Z,33.77
2018-07-13T02:32:19.861Z,29.83
2018-07-13T02:34:49.354Z,39.77
2018-07-13T02:37:18.650Z,26.70
2018-07-13T02:39:48.080Z,43.37
2018-07-13T02:42:17.377Z,32.27
2018-07-13T02:44:46.702Z,32.83
2018-07-13T02:47:16.035Z,28.83
2018-07-13T02:49:45.325Z,33.27
2018-07-13T02:52:14.693Z,26.80
2018-07-13T02:54:44.021Z,31.40
2018-07-13T02:57:13.306Z,26.43
2018-07-13T02:59:42.628Z,30.93
2018-07-13T03:02:12.475Z,33.53
2018-07-13T03:04:41.802Z,36.20
2018-07-13T03:07:11.131Z,26.57
2018-07-13T03:09:40.451Z,53.03
2018-07-13T03:12:09.901Z,29.63
2018-07-13T03:14:39.233Z,34.83
2018-07-13T03:17:08.629Z,30.67
2018-07-13T03:19:37.933Z,41.13
2018-07-13T03:22:07.283Z,35.70
2018-07-13T03:24:36.767Z,36.73
2018-07-13T03:27:06.065Z,29.70
2018-07-13T03:29:35.402Z,37.53
2018-07-13T03:32:04.768Z,39.83
2018-07-13T03:34:34.058Z,34.67
2018-07-13T03:37:03.396Z,31.40
2018-07-13T03:39:32.747Z,29.83
2018-07-13T03:42:02.079Z,30.30
2018-07-13T03:44:31.399Z,27.83
2018-07-13T03:47:01.003Z,44.40
2018-07-13T03:49:30.294Z,37.07
2018-07-13T03:51:59.634Z,35.27
2018-07-13T03:54:29.060Z,43.10
2018-07-13T03:56:58.367Z,40.43
2018-07-13T03:59:27.698Z,39.03
2018-07-13T04:01:57.084Z,51.23
2018-07-13T04:04:26.406Z,34.00
2018-07-13T04:06:55.750Z,28.53
2018-07-13T04:09:25.259Z,37.73
2018-07-13T04:11:54.607Z,49.93
2018-07-13T04:14:23.911Z,45.10
2018-07-13T04:16:53.286Z,39.60
2018-07-13T04:19:22.624Z,39.60
2018-07-13T04:21:52.015Z,35.40
2018-07-13T04:24:21.394Z,43.00
2018-07-13T04:26:50.801Z,41.00
2018-07-13T04:29:20.841Z,44.60
2018-07-13T04:31:50.513Z,44.40
2018-07-13T04:34:19.997Z,26.00
2018-07-13T04:36:49.302Z,35.13
2018-07-13T04:39:18.701Z,30.87
2018-07-13T04:41:48.158Z,36.07
2018-07-13T04:44:17.672Z,33.07
2018-07-13T04:46:47.030Z,35.80
2018-07-13T04:49:16.441Z,46.00
2018-07-13T04:51:45.795Z,48.60
2018-07-13T04:54:15.715Z,31.03
2018-07-13T04:56:45.134Z,28.00
2018-07-13T04:59:14.636Z,32.27
2018-07-13T05:01:44.085Z,31.40
2018-07-13T05:04:13.570Z,27.20
2018-07-13T05:06:43.030Z,28.13
2018-07-13T05:09:12.476Z,47.00
2018-07-13T05:11:41.879Z,33.67
2018-07-13T05:14:11.876Z,34.87
2018-07-13T05:16:41.908Z,35.33
2018-07-13T05:19:11.305Z,40.70
2018-07-13T05:21:40.935Z,30.40
2018-07-13T05:24:11.021Z,36.57
2018-07-13T05:26:40.423Z,25.70
2018-07-13T05:29:09.767Z,32.33
2018-07-13T05:31:39.595Z,25.40
2018-07-13T05:34:08.968Z,29.30
2018-07-13T05:36:38.357Z,29.03
2018-07-13T05:39:12.338Z,27.03
2018-07-13T05:41:42.776Z,29.83
2018-07-13T05:44:12.107Z,32.17
2018-07-13T05:46:41.959Z,33.50
2018-07-13T05:49:11.333Z,35.00
2018-07-13T05:51:40.780Z,23.23
2018-07-13T05:54:10.624Z,27.30
2018-07-13T05:56:39.959Z,27.23
2018-07-13T05:59:09.295Z,24.87
2018-07-13T06:01:38.926Z,26.30
2018-07-13T06:04:08.323Z,32.10
2018-07-13T06:06:37.623Z,21.90
2018-07-13T06:09:08.836Z,30.37
2018-07-13T06:11:38.381Z,27.87
2018-07-13T06:14:08.053Z,24.50
2018-07-13T06:16:37.440Z,22.20
2018-07-13T06:19:06.808Z,24.57
2018-07-13T06:21:35.922Z,28.53
2018-07-13T06:24:06.181Z,25.93
2018-07-13T06:26:35.498Z,21.40
2018-07-13T06:29:04.995Z,24.47
2018-07-13T06:31:34.415Z,24.03
2018-07-13T06:34:03.724Z,24.80
2018-07-13T06:36:33.099Z,28.40
2018-07-13T06:39:02.564Z,28.40
2018-07-13T06:41:31.886Z,25.57
2018-07-13T06:44:01.231Z,29.87
2018-07-13T06:46:30.835Z,25.50
2018-07-13T06:49:00.152Z,23.33
2018-07-13T06:51:29.553Z,24.13
2018-07-13T06:53:58.970Z,22.90
2018-07-13T06:56:28.319Z,36.40
2018-07-13T06:59:19.787Z,15.97
2018-07-13T07:01:49.913Z,35.20
2018-07-13T07:04:27.175Z,24.23
2018-07-13T07:06:57.270Z,22.13
2018-07-13T07:09:28.370Z,24.27
2018-07-13T07:12:16.875Z,30.13
2018-07-13T07:14:46.410Z,30.93
2018-07-13T07:17:15.826Z,25.17
2018-07-13T07:19:45.179Z,25.97
2018-07-13T07:22:15.139Z,21.07
2018-07-13T07:24:44.531Z,28.30
2018-07-13T07:27:13.804Z,21.43
2018-07-13T07:29:43.212Z,40.17
2018-07-13T07:32:12.590Z,22.03
2018-07-13T07:34:41.912Z,24.30
2018-07-13T07:37:11.291Z,27.23
2018-07-13T07:39:40.749Z,26.00
2018-07-13T07:42:10.158Z,22.83
2018-07-13T07:44:39.802Z,15.93
2018-07-13T07:47:09.368Z,25.93
2018-07-13T07:49:38.790Z,25.30
2018-07-13T07:52:08.171Z,29.17
2018-07-13T07:54:37.572Z,19.50
2018-07-13T07:57:07.080Z,17.43
2018-07-13T07:59:36.248Z,35.63
2018-07-13T08:02:05.573Z,21.00
2018-07-13T08:04:34.933Z,21.00
2018-07-13T08:07:05.182Z,23.90
2018-07-13T08:09:34.192Z,22.27
2018-07-13T08:12:03.773Z,18.03
2018-07-13T08:14:33.256Z,16.60
2018-07-13T08:17:02.927Z,25.23
2018-07-13T08:19:32.382Z,14.60
2018-07-13T08:22:15.595Z,22.40
2018-07-13T08:24:45.897Z,16.60
2018-07-13T08:27:19.266Z,19.37
2018-07-13T08:29:49.556Z,22.60
2018-07-13T08:32:18.846Z,18.20
2018-07-13T08:34:48.291Z,27.60
2018-07-13T08:37:18.505Z,26.50
2018-07-13T08:39:47.881Z,24.30
2018-07-13T08:42:17.766Z,19.57
2018-07-13T08:44:47.135Z,21.40
2018-07-13T08:47:16.472Z,25.73
2018-07-13T08:49:45.876Z,15.10
2018-07-13T08:52:15.223Z,24.73
2018-07-13T08:54:44.572Z,29.40
2018-07-13T08:57:13.708Z,19.50
2018-07-13T08:59:43.205Z,16.13
2018-07-13T09:02:12.524Z,20.50
2018-07-13T09:04:42.125Z,18.70
2018-07-13T09:07:11.472Z,25.73
2018-07-13T09:09:40.930Z,16.90
2018-07-13T09:12:10.360Z,18.10
2018-07-13T09:14:39.775Z,24.00
2018-07-13T09:17:09.515Z,23.00
2018-07-13T09:19:38.886Z,10.50
2018-07-13T09:22:08.213Z,23.60
2018-07-13T09:24:37.700Z,20.50
2018-07-13T09:27:07.643Z,19.00
2018-07-13T09:29:36.942Z,20.07
2018-07-13T09:32:06.531Z,16.00
2018-07-13T09:34:36.052Z,16.90
2018-07-13T09:37:05.568Z,22.13
2018-07-13T09:39:34.999Z,14.73
2018-07-13T09:42:04.436Z,12.80
2018-07-13T09:44:33.821Z,14.83
2018-07-13T09:47:03.266Z,14.97
2018-07-13T09:49:32.412Z,13.70
2018-07-13T09:52:01.712Z,24.83
2018-07-13T09:54:31.022Z,21.43
2018-07-13T09:57:00.438Z,18.17
2018-07-13T09:59:29.845Z,22.17
2018-07-13T10:01:59.276Z,19.33
2018-07-13T10:04:28.626Z,16.17
2018-07-13T10:06:57.994Z,16.27
2018-07-13T10:09:27.512Z,17.37
2018-07-13T10:11:57.024Z,22.30
2018-07-13T10:14:26.404Z,17.37
2018-07-13T10:16:55.721Z,20.33
2018-07-13T10:19:25.306Z,17.13
2018-07-13T10:21:54.641Z,17.37
2018-07-13T10:24:24.078Z,17.63
2018-07-13T10:26:54.830Z,14.20
2018-07-13T10:29:35.589Z,13.90
2018-07-13T10:32:05.179Z,19.60
2018-07-13T10:34:34.594Z,22.10
2018-07-13T10:37:05.457Z,20.43
2018-07-13T10:39:35.103Z,17.23
2018-07-13T10:42:04.466Z,23.00
2018-07-13T10:44:33.786Z,15.13
2018-07-13T10:47:03.292Z,19.30
2018-07-13T10:49:32.666Z,16.80
2018-07-13T10:52:02.026Z,23.33
2018-07-13T10:54:31.988Z,12.53
2018-07-13T10:57:01.352Z,11.47
2018-07-13T10:59:30.712Z,11.03
2018-07-13T11:02:00.110Z,17.00
2018-07-13T11:04:29.396Z,14.40
2018-07-13T11:06:58.783Z,15.03
2018-07-13T11:09:28.172Z,9.57
2018-07-13T11:11:57.497Z,14.33
2018-07-13T11:14:27.026Z,11.93
2018-07-13T11:16:56.946Z,13.70
2018-07-13T11:19:26.859Z,14.27
2018-07-13T11:21:56.788Z,17.23
2018-07-13T11:24:26.418Z,12.73
2018-07-13T11:26:55.462Z,17.67
2018-07-13T11:29:24.889Z,11.27
2018-07-13T11:31:54.338Z,15.80
2018-07-13T11:34:23.678Z,13.77
2018-07-13T11:36:53.093Z,16.53
2018-07-13T11:39:22.590Z,17.60
2018-07-13T11:41:51.926Z,16.47
2018-07-13T11:44:21.264Z,11.10
2018-07-13T11:46:51.550Z,13.63
2018-07-13T11:49:21.012Z,15.13
2018-07-13T11:51:50.465Z,15.63
2018-07-13T11:54:19.919Z,19.73
2018-07-13T11:56:49.397Z,22.27
2018-07-13T11:59:18.784Z,22.53
2018-07-13T12:01:48.612Z,24.10
2018-07-13T12:04:18.062Z,16.07
2018-07-13T12:06:47.541Z,15.50
2018-07-13T12:09:17.808Z,20.67
2018-07-13T12:11:47.180Z,19.60
2018-07-13T12:14:16.919Z,15.63
2018-07-13T12:16:46.410Z,17.90
2018-07-13T12:19:15.886Z,20.07
2018-07-13T12:21:45.382Z,26.17
2018-07-13T12:24:15.384Z,14.37
2018-07-13T12:26:44.742Z,15.93
2018-07-13T12:29:14.211Z,15.23
2018-07-13T12:31:43.666Z,14.80
2018-07-13T12:34:13.362Z,12.03
2018-07-13T12:36:42.533Z,16.43
2018-07-13T12:39:11.999Z,12.53
2018-07-13T12:41:41.455Z,15.00
2018-07-13T12:44:10.835Z,15.83
2018-07-13T12:46:40.799Z,28.97
2018-07-13T12:49:10.353Z,16.77
2018-07-13T12:51:39.899Z,14.60
2018-07-13T12:54:09.219Z,23.03
2018-07-13T12:56:38.533Z,15.23
2018-07-13T12:59:08.427Z,12.03
2018-07-13T13:01:37.859Z,15.83
2018-07-13T13:04:07.222Z,14.17
2018-07-13T13:06:36.556Z,14.37
2018-07-13T13:09:06.596Z,23.27
2018-07-13T13:11:35.972Z,17.00
2018-07-13T13:14:05.467Z,19.97
2018-07-13T13:16:34.908Z,17.63
2018-07-13T13:19:04.412Z,13.63
2018-07-13T13:21:33.929Z,25.17
2018-07-13T13:24:03.265Z,19.07
2018-07-13T13:26:32.659Z,14.50
2018-07-13T13:29:02.102Z,12.73
2018-07-13T13:31:31.925Z,10.37
2018-07-13T13:34:01.344Z,17.17
2018-07-13T13:36:30.776Z,12.97
2018-07-13T13:39:00.135Z,21.23
2018-07-13T13:41:29.540Z,10.20
2018-07-13T13:43:58.927Z,10.23
2018-07-13T13:46:28.296Z,18.97
2018-07-13T13:48:57.648Z,14.80
2018-07-13T13:51:26.932Z,11.73
2018-07-13T13:53:56.497Z,15.30
2018-07-13T13:56:25.858Z,10.77
2018-07-13T13:58:55.228Z,9.40
2018-07-13T14:01:24.654Z,19.23
2018-07-13T14:03:53.982Z,14.20
2018-07-13T14:06:23.335Z,12.30
2018-07-13T14:08:52.755Z,14.00
2018-07-13T14:11:22.143Z,10.17
2018-07-13T14:13:51.664Z,12.07
2018-07-13T14:16:21.152Z,13.23
2018-07-13T14:18:50.526Z,15.87
2018-07-13T14:21:19.816Z,17.07
2018-07-13T14:23:49.216Z,14.33
2018-07-13T14:26:18.628Z,18.97
2018-07-13T14:28:48.036Z,18.57
2018-07-13T14:31:17.442Z,13.63
2018-07-13T14:33:46.798Z,19.30
2018-07-13T14:36:16.227Z,13.13
2018-07-13T14:38:45.674Z,15.40
2018-07-13T14:41:15.002Z,13.33
2018-07-13T14:43:44.375Z,18.00
2018-07-13T14:46:14.012Z,18.63
2018-07-13T14:48:43.341Z,16.93
2018-07-13T14:51:12.668Z,15.50
2018-07-13T14:53:42.069Z,14.53
2018-07-13T14:56:11.541Z,19.63
2018-07-13T14:58:40.859Z,7.57
2018-07-13T15:01:10.382Z,8.03
2018-07-13T15:03:39.724Z,11.00
2018-07-13T15:06:09.369Z,12.23
2018-07-13T15:08:38.426Z,13.00
2018-07-13T15:11:07.746Z,13.80
2018-07-13T15:13:37.144Z,14.20
2018-07-13T15:16:06.755Z,13.93
2018-07-13T15:18:36.132Z,14.77
2018-07-13T15:21:05.472Z,13.33
2018-07-13T15:23:35.067Z,6.87
2018-07-13T15:26:04.337Z,10.93
2018-07-13T15:28:33.748Z,12.97
2018-07-13T15:31:03.118Z,13.80
2018-07-13T15:33:32.454Z,11.03
2018-07-13T15:36:01.880Z,12.40
2018-07-13T15:38:31.332Z,24.73
2018-07-13T15:41:00.775Z,13.07
2018-07-13T15:43:30.228Z,5.77
2018-07-13T15:46:00.587Z,12.93
2018-07-13T15:48:29.924Z,9.80
2018-07-13T15:50:59.303Z,17.23
2018-07-13T15:53:28.843Z,14.50
2018-07-13T15:55:59.401Z,12.13
2018-07-13T15:58:29.749Z,13.20
2018-07-13T16:00:59.107Z,14.00
2018-07-13T16:03:28.461Z,7.40
2018-07-13T16:05:58.370Z,14.00
2018-07-13T16:08:27.730Z,8.53
2018-07-13T16:10:57.162Z,12.10
2018-07-13T16:13:26.616Z,26.23
2018-07-13T16:15:56.172Z,8.20
2018-07-13T16:18:25.503Z,6.53
2018-07-13T16:20:54.852Z,8.77
2018-07-13T16:23:24.190Z,6.93
2018-07-13T16:25:53.543Z,7.37
2018-07-13T16:28:23.364Z,18.33
2018-07-13T16:30:52.617Z,8.17
2018-07-13T16:33:22.016Z,11.43
2018-07-13T16:35:51.514Z,14.70
2018-07-13T16:38:20.853Z,8.43
2018-07-13T16:40:50.365Z,13.70
2018-07-13T16:43:19.707Z,15.20
2018-07-13T16:45:49.031Z,10.90
2018-07-13T16:48:18.348Z,12.77
2018-07-13T16:50:48.263Z,16.47
2018-07-13T16:53:17.601Z,16.10
2018-07-13T16:55:47.034Z,15.27
2018-07-13T16:58:16.344Z,8.90
2018-07-13T17:00:46.108Z,21.17
2018-07-13T17:03:15.608Z,6.63
2018-07-13T17:05:45.101Z,11.30
2018-07-13T17:08:14.480Z,12.67
2018-07-13T17:10:44.009Z,14.73
2018-07-13T17:13:14.023Z,15.07
2018-07-13T17:15:43.475Z,15.20
2018-07-13T17:18:12.911Z,8.07
2018-07-13T17:20:42.697Z,8.17
2018-07-13T17:23:12.080Z,7.47
2018-07-13T17:25:41.533Z,12.10
2018-07-13T17:28:11.032Z,21.13
2018-07-13T17:30:40.419Z,15.00
2018-07-13T17:33:09.821Z,9.47
2018-07-13T17:35:39.552Z,12.90
2018-07-13T17:38:08.881Z,8.70
2018-07-13T17:40:38.285Z,13.40
2018-07-13T17:43:07.701Z,14.90
2018-07-13T17:45:37.035Z,12.20
2018-07-13T17:48:06.575Z,16.43
2018-07-13T17:50:36.206Z,20.53
2018-07-13T17:53:05.642Z,10.13
2018-07-13T17:55:35.044Z,11.00
2018-07-13T17:58:04.963Z,8.80
2018-07-13T18:00:34.346Z,20.60
2018-07-13T18:03:03.713Z,21.07
2018-07-13T18:05:33.244Z,34.00
2018-07-13T18:08:02.577Z,16.50
2018-07-13T18:10:31.988Z,12.53
2018-07-13T18:13:01.710Z,9.70
2018-07-13T18:15:30.871Z,17.40
2018-07-13T18:18:00.349Z,16.00
2018-07-13T18:20:30.251Z,12.40
2018-07-13T18:22:59.805Z,8.50
2018-07-13T18:25:29.551Z,6.63
2018-07-13T18:27:58.732Z,9.30
2018-07-13T18:30:28.090Z,8.07
2018-07-13T18:32:57.423Z,10.30
2018-07-13T18:35:26.812Z,13.47
2018-07-13T18:37:56.210Z,7.17
2018-07-13T18:40:25.541Z,10.73
2018-07-13T18:42:54.961Z,15.77
2018-07-13T18:45:24.445Z,25.57
2018-07-13T18:47:53.816Z,8.97
2018-07-13T18:50:23.154Z,10.87
2018-07-13T18:52:52.482Z,7.83
2018-07-13T18:55:21.790Z,9.80
2018-07-13T18:57:51.185Z,18.77
2018-07-13T19:00:20.588Z,8.10
2018-07-13T19:02:49.945Z,8.77
2018-07-13T19:05:19.511Z,11.13
2018-07-13T19:07:48.902Z,13.13
2018-07-13T19:10:18.256Z,14.70
2018-07-13T19:12:47.632Z,11.73
2018-07-13T19:15:17.159Z,17.97
2018-07-13T19:17:46.562Z,11.37
2018-07-13T19:20:16.075Z,6.17
2018-07-13T19:22:45.563Z,10.93
2018-07-13T19:25:14.840Z,12.30
2018-07-13T19:27:44.907Z,16.23
2018-07-13T19:30:14.263Z,10.43
2018-07-13T19:32:43.370Z,21.93
2018-07-13T19:35:12.787Z,10.43
2018-07-13T19:37:42.116Z,17.80
2018-07-13T19:40:11.471Z,12.60
2018-07-13T19:42:40.824Z,10.67
2018-07-13T19:45:10.216Z,15.93
2018-07-13T19:47:39.587Z,17.80
2018-07-13T19:50:09.399Z,13.87
2018-07-13T19:52:38.830Z,13.83
2018-07-13T19:55:08.470Z,15.10
2018-07-13T19:57:37.842Z,14.57
2018-07-13T20:00:07.299Z,13.77
2018-07-13T20:02:36.656Z,26.10
2018-07-13T20:05:06.241Z,15.50
2018-07-13T20:07:35.668Z,13.47
2018-07-13T20:10:05.044Z,10.07
2018-07-13T20:12:34.941Z,16.17
2018-07-13T20:15:04.406Z,11.00
2018-07-13T20:17:33.792Z,10.40
2018-07-13T20:20:03.288Z,27.00
2018-07-13T20:22:32.661Z,12.70
2018-07-13T20:25:02.044Z,11.97
2018-07-13T20:27:31.492Z,9.40
2018-07-13T20:30:01.219Z,10.40
2018-07-13T20:32:31.316Z,15.80
2018-07-13T20:35:00.796Z,9.83
2018-07-13T20:37:30.188Z,12.20
2018-07-13T20:39:59.544Z,12.03
2018-07-13T20:42:28.914Z,25.93
2018-07-13T20:44:58.298Z,8.80
2018-07-13T20:47:27.605Z,9.77
2018-07-13T20:49:56.983Z,19.43
2018-07-13T20:52:26.356Z,12.47
2018-07-13T20:54:55.433Z,7.40
2018-07-13T20:57:24.883Z,15.40
2018-07-13T20:59:54.283Z,22.00
2018-07-13T21:02:23.611Z,11.70
2018-07-13T21:04:52.977Z,14.80
2018-07-13T21:07:22.722Z,8.20
2018-07-13T21:09:52.106Z,24.03
2018-07-13T21:12:21.543Z,8.33
2018-07-13T21:14:50.922Z,8.87
2018-07-13T21:17:20.508Z,12.93
2018-07-13T21:19:50.172Z,13.23
2018-07-13T21:22:19.650Z,9.37
2018-07-13T21:24:49.238Z,9.17
2018-07-13T21:27:18.547Z,10.07
2018-07-13T21:29:47.859Z,16.13
2018-07-13T21:32:17.171Z,11.70
2018-07-13T21:34:46.509Z,15.80
2018-07-13T21:37:15.856Z,13.10
2018-07-13T21:39:45.237Z,13.30
2018-07-13T21:42:14.708Z,14.20
2018-07-13T21:44:44.045Z,8.73
2018-07-13T21:47:13.452Z,10.23
2018-07-13T21:49:42.889Z,14.80
2018-07-13T21:52:12.377Z,16.30
2018-07-13T21:54:41.856Z,10.13
2018-07-13T21:57:11.276Z,14.87
2018-07-13T21:59:40.780Z,17.83
2018-07-13T22:02:10.366Z,11.87
2018-07-13T22:04:40.249Z,15.10
2018-07-13T22:07:09.689Z,13.47
2018-07-13T22:09:39.057Z,9.17
2018-07-13T22:12:08.467Z,19.43
2018-07-13T22:14:37.522Z,10.63
2018-07-13T22:17:06.867Z,20.63
2018-07-13T22:19:36.261Z,10.53
2018-07-13T22:22:05.664Z,12.93
2018-07-13T22:24:35.067Z,17.00
2018-07-13T22:27:04.799Z,17.77
2018-07-13T22:29:34.197Z,11.73
2018-07-13T22:32:03.689Z,12.60
2018-07-13T22:34:33.278Z,9.23
2018-07-13T22:37:02.740Z,17.27
2018-07-13T22:39:32.353Z,11.40
2018-07-13T22:42:01.872Z,17.20
2018-07-13T22:44:31.437Z,14.23
2018-07-13T22:47:00.895Z,12.83
2018-07-13T22:49:31.171Z,10.20
2018-07-13T22:52:00.805Z,9.63
2018-07-13T22:54:30.422Z,11.17
2018-07-13T22:56:59.879Z,16.37
2018-07-13T22:59:29.211Z,9.37
2018-07-13T23:01:58.734Z,14.57
2018-07-13T23:04:28.165Z,15.40
2018-07-13T23:06:57.565Z,12.23
2018-07-13T23:09:27.005Z,13.00
2018-07-13T23:11:57.434Z,10.23
2018-07-13T23:14:26.896Z,15.30
2018-07-13T23:16:56.215Z,16.07
2018-07-13T23:19:25.844Z,10.27
2018-07-13T23:21:55.287Z,12.67
2018-07-13T23:24:24.740Z,25.13
2018-07-13T23:26:54.831Z,13.47
2018-07-13T23:29:24.340Z,14.70
2018-07-13T23:31:53.786Z,9.50
2018-07-13T23:34:23.343Z,12.83
2018-07-13T23:36:52.744Z,8.43
2018-07-13T23:39:22.106Z,13.53
2018-07-13T23:41:51.442Z,9.40
2018-07-13T23:44:20.838Z,14.33
2018-07-13T23:46:50.213Z,10.77
2018-07-13T23:49:20.506Z,10.10
2018-07-13T23:51:49.856Z,10.57
2018-07-13T23:54:19.429Z,20.13
2018-07-13T23:56:48.568Z,9.27
2018-07-13T23:59:17.981Z,13.53
